Погода Табукна 2 недели

Табук, Саудовская Аравия

17 - 30 июня
  • 17июня
    Сегодня
    +27°
    +41°
    Небольшая облачность
    ВремяПогодаТемператураВлажностьДавлениеВетер, м/сВероятность осадков
    00:00Ясно и безоблачно+35°C12 %694 мм4.5 м/с0 %
    03:00Ясно и безоблачно+30°C17 %694 мм2.7 м/с0 %
    06:00Ясно и безоблачно+27°C23 %694 мм1.7 м/с0 %
    09:00Ясно и безоблачно+33°C16 %696 мм1.7 м/с0 %
    12:00Небольшая облачность+37°C10 %695 мм1.9 м/с0 %
    15:00Небольшая облачность+41°C8 %694 мм3.1 м/с0 %
    18:00Небольшая облачность+40°C8 %693 мм2.6 м/с0 %
    21:00Ясно и безоблачно+38°C9 %694 мм3.7 м/с0 %
  • 18июня
    Вторник
    +27°
    +43°
    Ясно и безоблачно
    ВремяПогодаТемператураВлажностьДавлениеВетер, м/сВероятность осадков
    00:00Ясно и безоблачно+34°C14 %694 мм3.2 м/с0 %
    03:00Ясно и безоблачно+31°C19 %693 мм2.9 м/с0 %
    06:00Ясно и безоблачно+28°C24 %694 мм2.0 м/с0 %
    09:00Ясно и безоблачно+32°C18 %695 мм2.0 м/с0 %
    12:00Ясно и безоблачно+38°C10 %695 мм1.7 м/с0 %
    15:00Ясно и безоблачно+41°C8 %694 мм2.5 м/с0 %
    18:00Ясно и безоблачно+42°C5 %693 мм6.0 м/с0 %
    21:00Ясно и безоблачно+37°C8 %693 мм4.5 м/с0 %
  • 19июня
    Среда
    +27°
    +43°
    Ясно и безоблачно
    ВремяПогодаТемператураВлажностьДавлениеВетер, м/сВероятность осадков
    00:00Ясно и безоблачно+33°C13 %693 мм3.0 м/с0 %
    03:00Ясно и безоблачно+30°C18 %692 мм2.6 м/с0 %
    06:00Ясно и безоблачно+28°C22 %693 мм2.2 м/с0 %
    09:00Ясно и безоблачно+33°C20 %694 мм2.3 м/с0 %
    12:00Ясно и безоблачно+39°C11 %694 мм1.7 м/с0 %
    15:00Ясно и безоблачно+43°C3 %692 мм3.0 м/с0 %
    18:00Ясно и безоблачно+41°C4 %693 мм7.1 м/с0 %
    21:00Ясно и безоблачно+37°C8 %693 мм4.2 м/с0 %
  • 20июня
    Четверг
    +26°
    +43°
    Ясно и безоблачно
    ВремяПогодаТемператураВлажностьДавлениеВетер, м/сВероятность осадков
    00:00Ясно и безоблачно+34°C11 %693 мм4.0 м/с0 %
    03:00Ясно и безоблачно+30°C16 %693 мм2.7 м/с0 %
    06:00Ясно и безоблачно+28°C21 %693 мм1.3 м/с0 %
    09:00Ясно и безоблачно+32°C21 %694 мм1.2 м/с0 %
    12:00Ясно и безоблачно+39°C8 %694 мм1.6 м/с0 %
    15:00Ясно и безоблачно+42°C2 %693 мм4.7 м/с0 %
    18:00Ясно и безоблачно+41°C3 %692 мм7.1 м/с0 %
    21:00Ясно и безоблачно+37°C13 %693 мм3.8 м/с0 %
  • 21июня
    Пятница
    +26°
    +43°
    Ясно и безоблачно
    ВремяПогодаТемператураВлажностьДавлениеВетер, м/сВероятность осадков
    00:00Ясно и безоблачно+33°C20 %693 мм3.5 м/с0 %
    03:00Ясно и безоблачно+30°C23 %693 мм2.4 м/с0 %
    06:00Ясно и безоблачно+27°C36 %694 мм1.5 м/с0 %
    09:00Ясно и безоблачно+32°C24 %695 мм2.9 м/с0 %
    12:00Ясно и безоблачно+38°C11 %695 мм1.7 м/с0 %
    15:00Ясно и безоблачно+41°C8 %693 мм3.2 м/с0 %
    18:00Ясно и безоблачно+41°C4 %692 мм7.3 м/с0 %
    21:00Ясно и безоблачно+36°C9 %692 мм2.8 м/с0 %
Мы используем cookies
Соглашаюсь